Station: Alva Beach  

  Atmospheric Gas Attenuation - ITU Rec 676-11   ----------------- dB/100km -----------------
Date Time Temp RH % AH g/m3 Dew Point Wind Direction Speed kph Gust kph Barometer mB Rainfall Since 9am 24GHz 47GHz 76GHz 122GHz 134GHz 241GHz
08/05 10:40 26.5 63 15.77 18.9 15 20 1017.5 0 34.0 33.7 61.6 162.6 174.0 604.2
08/05 10:30 26.4 62 15.43 18.5 15 20 1017.5 0 33.3 33.2 60.2 159.0 169.5 588.6
08/05 10:20 26.3 61 15.1 18.4 9 13 1017.6 0 32.6 32.7 58.9 155.5 165.2 573.5
08/05 10:10 25.9 64 15.49 18.6 15 19 1017.6 0 33.4 33.5 60.9 160.7 171.5 595.3
08/05 10:00 25.9 64 15.49 18.6 11 22 1017.6 0 33.4 33.5 60.9 160.7 171.5 595.3
08/05 09:50 25.3 70 16.39 19.4 9 15 1017.4 0 35.4 35.3 65.2 172.4 185.6 644.4
08/05 09:40 25 69 15.88 19.1 11 13 1017.4 0 34.3 34.5 63.3 167.1 179.0 621.5
08/05 09:30 24.4 71 15.8 18.8 13 20 1017.5 0 34.2 34.6 63.4 167.5 179.3 622.4
08/05 09:20 24.8 70 15.93 19 15 20 1017.3 0 34.4 34.7 63.6 168.1 180.2 625.5
08/05 09:10 24.4 72 16.02 19 11 13 1017.4 0 34.7 35.0 64.4 170.0 182.5 633.4
08/05 09:00 24 73 15.88 18.9 9 19 1017.4 0 34.4 34.9 64.1 169.3 181.4 629.6
08/05 08:50 23.2 74 15.38 18.3 9 13 1017.3 0 33.4 34.4 62.5 165.1 176.1 610.8
08/05 08:40 22.7 74 14.95 17.8 9 13 1017.2 0 32.5 33.8 61.0 161.1 171.0 593.2
08/05 08:30 22.5 77 15.38 18.3 11 20 1017.1 0 33.5 34.6 63.1 166.6 177.7 616.4
08/05 08:20 22 78 15.14 18 13 15 1016.9 0 33.0 34.4 62.4 164.8 175.3 608.1
08/05 08:10 21.7 79 15.07 17.9 9 13 1017 0 32.9 34.4 62.3 164.6 175.0 606.9
08/05 08:00 21.3 82 15.28 18.1 13 20 1016.9 0 33.4 34.9 63.6 168.0 179.0 620.9
08/05 07:50 21.1 84 15.48 18.3 11 15 1016.8 0 33.8 35.4 64.7 170.8 182.4 632.8
08/05 07:40 20.8 87 15.75 18.6 7 11 1016.7 0 34.4 36.0 66.2 174.8 187.2 649.4
08/05 07:30 20.4 89 15.74 18.5 11 20 1016.5 0 34.4 36.1 66.5 175.6 188.0 652.2
08/05 07:20 20.2 91 15.91 18.7 11 15 1016.3 0 34.8 36.5 67.4 178.1 191.1 662.8
08/05 07:10 20.1 92 15.99 18.8 11 17 1016.2 0 35.0 36.7 67.9 179.3 192.6 667.9
08/05 07:00 19.9 93 15.98 18.7 11 15 1016.1 0 35.0 36.8 68.0 179.6 192.9 669.1
08/05 06:50 19.7 93 15.79 18.5 11 13 1016 0 34.6 36.5 67.3 177.7 190.5 660.7
08/05 06:40 19.6 94 15.87 18.6 9 13 1015.9 0 34.8 36.7 67.7 178.9 192.0 665.8
08/05 06:30 19.5 93 15.61 18.3 9 13 1015.8 0 34.2 36.2 66.6 175.9 188.2 652.7
08/05 06:20 19.6 94 15.87 18.6 9 11 1015.7 0 34.8 36.7 67.7 178.9 191.9 665.7
08/05 06:10 19.5 94 15.77 18.5 11 15 1015.4 0 34.6 36.5 67.3 177.9 190.6 661.1
08/05 06:00 19.6 94 15.87 18.6 9 13 1015.3 0 34.8 36.7 67.7 178.9 191.9 665.5
08/05 05:50 19.6 94 15.87 18.6 11 11 1015.2 0 34.8 36.7 67.7 178.8 191.9 665.4
08/05 05:40 19.6 94 15.87 18.6 9 13 1015.1 0 34.8 36.7 67.7 178.8 191.9 665.4
08/05 05:30 19.7 94 15.96 18.7 9 11 1015 0 35.0 36.8 68.0 179.7 193.0 669.3
08/05 05:20 19.8 94 16.05 18.8 9 11 1014.9 0 35.2 36.9 68.4 180.6 194.1 673.2
08/05 05:10 19.9 94 16.15 18.9 7 9 1014.9 0 35.4 37.1 68.7 181.6 195.4 677.7
08/05 05:00 20 94 16.24 19 9 11 1014.8 0 35.5 37.2 69.1 182.5 196.5 681.5
08/05 04:50 19.9 94 16.15 18.9 9 11 1014.8 0 35.4 37.0 68.7 181.6 195.3 677.6
08/05 04:40 19.9 94 16.15 18.9 9 9 1014.8 0 35.4 37.0 68.7 181.6 195.3 677.6
08/05 04:30 20 94 16.24 19 9 13 1014.8 0 35.5 37.2 69.1 182.5 196.5 681.5
08/05 04:20 20 94 16.24 19 9 13 1014.7 0 35.5 37.2 69.1 182.5 196.5 681.5
08/05 04:10 20.1 94 16.34 19.1 7 9 1014.6 0 35.7 37.3 69.4 183.5 197.7 685.9
08/05 04:00 20.2 94 16.43 19.2 9 13 1014.7 0 35.9 37.4 69.8 184.4 198.9 689.9
08/05 03:50 20.2 94 16.43 19.2 9 11 1014.6 0 35.9 37.4 69.8 184.4 198.9 689.9
08/05 03:40 20.3 94 16.53 19.3 9 11 1014.7 0 36.1 37.6 70.2 185.4 200.2 694.4
08/05 03:30 20.3 94 16.53 19.3 9 13 1014.7 0 36.1 37.6 70.2 185.4 200.2 694.4
08/05 03:20 20.3 94 16.53 19.3 7 9 1014.6 0 36.1 37.6 70.1 185.4 200.1 694.3
08/05 03:10 20.3 94 16.53 19.3 7 9 1014.6 0 36.1 37.6 70.1 185.4 200.1 694.3
08/05 03:00 20.3 94 16.53 19.3 9 11 1014.6 0 36.1 37.6 70.1 185.4 200.1 694.3
08/05 02:50 20.3 94 16.53 19.3 9 9 1014.6 0 36.1 37.6 70.1 185.4 200.1 694.3
08/05 02:40 20.3 94 16.53 19.3 7 9 1014.7 0 36.1 37.6 70.2 185.4 200.2 694.4
08/05 02:30 20.4 94 16.63 19.4 7 9 1014.8 0 36.3 37.7 70.5 186.4 201.4 698.9
08/05 02:20 20.5 94 16.72 19.5 7 11 1014.8 0 36.5 37.9 70.9 187.3 202.6 702.8
08/05 02:10 20.6 94 16.82 19.6 7 9 1014.8 0 36.7 38.0 71.3 188.3 203.9 707.3
08/05 02:00 20.7 94 16.92 19.7 7 11 1014.8 0 36.9 38.2 71.6 189.3 205.1 711.8
08/05 01:50 20.8 94 17.02 19.8 7 9 1014.8 0 37.1 38.3 72.0 190.4 206.4 716.3
08/05 01:40 20.9 94 17.12 19.9 7 7 1014.8 0 37.3 38.4 72.4 191.4 207.7 720.8
08/05 01:30 21.1 94 17.32 20.1 7 9 1014.8 0 37.8 38.7 73.2 193.4 210.3 729.7
08/05 01:20 21.2 93 17.23 20 6 7 1015 0 37.6 38.5 72.7 192.0 208.6 724.0
08/05 01:10 21.4 93 17.43 20.2 7 9 1015 0 38.0 38.8 73.4 194.1 211.2 732.9
08/05 01:00 21.6 93 17.64 20.4 6 9 1014.9 0 38.4 39.1 74.2 196.2 213.9 742.3
08/05 00:50 21.8 92 17.65 20.4 6 7 1014.8 0 38.4 39.0 74.1 195.8 213.4 740.8
08/05 00:40 22 91 17.66 20.5 7 9 1014.9 0 38.4 39.0 73.9 195.4 213.0 739.5
08/05 00:30 22.3 90 17.77 20.6 7 9 1014.9 0 38.6 39.0 74.2 196.1 213.9 742.5
08/05 00:20 22.6 88 17.68 20.5 7 7 1015 0 38.4 38.7 73.4 194.2 211.7 734.7
08/05 00:10 23 86 17.68 20.5 6 7 1015 0 38.3 38.6 73.1 193.1 210.5 730.9
08/05 00:00 23.8 85 18.28 21.1 9 17 1015.1 0 39.5 39.3 75.1 198.6 217.5 755.2
07/05 23:50 24.4 83 18.47 21.3 11 15 1015.2 0 39.9 39.4 75.4 199.4 218.7 759.4
07/05 23:40 24.3 83 18.37 21.2 11 15 1015.3 0 39.7 39.3 75.0 198.5 217.5 755.1
07/05 23:30 24.5 82 18.35 21.2 13 22 1015.4 0 39.6 39.1 74.8 197.7 216.6 752.1
07/05 23:20 24.5 82 18.35 21.2 17 22 1015.3 0 39.6 39.1 74.8 197.7 216.6 752.1
07/05 23:10 24.6 82 18.46 21.3 13 20 1015.4 0 39.8 39.3 75.2 198.8 218.0 757.0
07/05 23:00 24.6 82 18.46 21.3 17 26 1015.4 0 39.8 39.3 75.2 198.8 218.0 757.0
07/05 22:50 24.7 82 18.56 21.4 19 22 1015.5 0 40.0 39.4 75.6 199.8 219.2 761.4
07/05 22:40 24.5 82 18.35 21.2 17 22 1015.5 0 39.6 39.1 74.8 197.7 216.6 752.2
07/05 22:30 24.6 84 18.91 21.7 17 26 1015.6 0 40.8 40.2 77.3 204.5 224.9 781.3
07/05 22:20 24.7 84 19.01 21.8 15 20 1015.6 0 41.0 40.3 77.7 205.5 226.2 785.6
07/05 22:10 24.7 84 19.01 21.8 15 20 1015.6 0 41.0 40.3 77.7 205.5 226.2 785.6
07/05 22:00 24.7 85 19.24 22 17 26 1015.7 0 41.5 40.8 78.8 208.4 229.8 798.2
07/05 21:50 24.8 85 19.35 22.1 15 19 1015.7 0 41.7 40.9 79.2 209.6 231.2 803.1
07/05 21:40 24.8 84 19.12 21.9 19 24 1015.6 0 41.2 40.5 78.1 206.6 227.6 790.5
07/05 21:30 24.8 83 18.89 21.7 17 24 1015.6 0 40.7 40.0 77.0 203.7 224.0 778.1
07/05 21:20 24.9 83 19 21.8 19 24 1015.5 0 41.0 40.2 77.4 204.8 225.4 783.0
07/05 21:10 24.9 81 18.54 21.4 19 24 1015.5 0 40.0 39.3 75.3 199.1 218.3 758.3
07/05 21:00 24.9 82 18.77 21.6 17 28 1015.5 0 40.5 39.8 76.3 201.9 221.9 770.6
07/05 20:50 24.8 83 18.89 21.7 17 20 1015.4 0 40.7 40.0 77.0 203.7 224.0 778.0
07/05 20:40 25 84 19.34 22.1 19 22 1015.3 0 41.7 40.8 78.9 208.8 230.4 800.2
07/05 20:30 24.8 84 19.12 21.9 17 24 1015.4 0 41.2 40.5 78.1 206.6 227.6 790.4
07/05 20:20 24.9 84 19.23 22 15 20 1015.4 0 41.4 40.6 78.5 207.7 229.0 795.3
07/05 20:10 24.9 85 19.46 22.2 19 24 1015.4 0 41.9 41.1 79.6 210.6 232.6 807.8
07/05 20:00 24.9 85 19.46 22.2 17 24 1015.3 0 41.9 41.1 79.6 210.6 232.6 807.8
07/05 19:50 24.9 85 19.46 22.2 17 20 1015.2 0 41.9 41.1 79.6 210.6 232.5 807.7
07/05 19:40 25.1 84 19.45 22.2 22 28 1015 0 41.9 40.9 79.3 209.9 231.7 804.9
07/05 19:30 25.1 82 18.98 21.8 20 26 1014.9 0 40.9 40.0 77.1 203.9 224.4 779.5
07/05 19:20 25.1 81 18.75 21.6 22 26 1014.8 0 40.4 39.6 76.0 201.0 220.9 767.1
07/05 19:10 25.2 81 18.86 21.7 19 24 1014.7 0 40.6 39.7 76.4 202.1 222.2 771.9
07/05 19:00 25.1 80 18.52 21.4 22 30 1014.6 0 39.9 39.1 74.9 198.1 217.3 754.8
07/05 18:50 25.1 82 18.98 21.8 20 24 1014.5 0 40.9 40.0 77.1 203.9 224.4 779.3
07/05 18:40 25.1 83 19.21 22 19 24 1014.3 0 41.4 40.4 78.2 206.7 227.9 791.6
07/05 18:30 25.1 82 18.98 21.8 20 28 1014.2 0 40.9 40.0 77.1 203.8 224.3 779.1
07/05 18:20 24.9 82 18.77 21.6 22 26 1014.1 0 40.5 39.7 76.3 201.7 221.7 769.9
07/05 18:10 25.2 84 19.55 22.3 19 20 1014 0 42.1 41.0 79.7 210.7 232.8 808.7

Last Refresh: 08-May-2026 10:21:24

Bureau of Meteorology